Time;durP1;ratioP1;P1;durP2;ratioP2;P2;SDS_P1;SDS_P2;PMS_P1;PMS_P2;Temp;Humidity;BMP_temperature;BMP_pressure;BME280_temperature;BME280_humidity;BME280_pressure;Samples;Min_cycle;Max_cycle;Signal;HPM_P1;HPM_P2
2023/03/18 00:00:40;;;;;;;;;;;16.70;54.30;;;;;;4996679;28;19909;-88
2023/03/18 00:03:06;;;;;;;;;;;16.70;55.30;;;;;;4999792;28;20388;-90
2023/03/18 00:05:33;;;;;;;;;;;16.60;56.20;;;;;;4999630;28;19940;-89
2023/03/18 00:07:59;;;;;;;;;;;16.50;56.90;;;;;;4998590;28;20248;-88
2023/03/18 00:10:25;;;;;;;;;;;16.40;57.70;;;;;;5000403;28;19910;-89
2023/03/18 00:12:52;;;;;;;;;;;16.30;58.50;;;;;;4999176;28;20249;-88
2023/03/18 00:15:17;;;;;;;;;;;16.20;59.80;;;;;;5000659;28;20004;-89
2023/03/18 00:17:43;;;;;;;;;;;16.20;60.30;;;;;;4998212;28;20425;-89
2023/03/18 00:20:11;;;;;;;;;;;16.10;60.80;;;;;;4999446;28;19910;-89
2023/03/18 00:22:37;;;;;;;;;;;16.00;61.10;;;;;;4999223;28;20008;-88
2023/03/18 00:25:04;;;;;;;;;;;16.00;61.40;;;;;;4998952;28;20001;-89
2023/03/18 00:27:30;;;;;;;;;;;15.90;61.60;;;;;;4998827;28;20312;-89
2023/03/18 00:29:57;;;;;;;;;;;15.80;61.90;;;;;;5001055;28;19967;-89
2023/03/18 00:32:24;;;;;;;;;;;15.80;62.00;;;;;;4998886;28;20001;-90
2023/03/18 00:34:50;;;;;;;;;;;15.70;62.30;;;;;;5000646;28;19909;-90
2023/03/18 00:37:17;;;;;;;;;;;15.70;62.50;;;;;;4998903;28;19988;-89
2023/03/18 00:39:45;;;;;;;;;;;15.70;62.70;;;;;;4997481;28;20120;-89
2023/03/18 00:42:11;;;;;;;;;;;15.70;62.70;;;;;;4998532;28;19916;-90
2023/03/18 00:44:37;;;;;;;;;;;15.70;62.80;;;;;;5002369;28;19922;-89
2023/03/18 00:47:03;;;;;;;;;;;15.70;62.90;;;;;;4998235;28;19914;-89
2023/03/18 00:49:32;;;;;;;;;;;15.60;63.00;;;;;;4998290;28;19916;-91
2023/03/18 00:51:58;;;;;;;;;;;15.60;63.00;;;;;;5002803;28;19914;-90
2023/03/18 00:54:27;;;;;;;;;;;15.60;63.10;;;;;;5004236;28;20018;-90
2023/03/18 00:56:54;;;;;;;;;;;15.60;63.10;;;;;;5002923;28;19909;-90
2023/03/18 00:59:20;;;;;;;;;;;15.60;63.30;;;;;;5001029;28;19922;-89
2023/03/18 01:01:47;;;;;;;;;;;15.60;63.40;;;;;;5002407;28;19920;-90
2023/03/18 01:04:13;;;;;;;;;;;15.60;63.40;;;;;;5004689;28;19948;-89
2023/03/18 01:06:38;;;;;;;;;;;15.60;63.40;;;;;;5002413;28;19920;-88
2023/03/18 01:09:05;;;;;;;;;;;15.60;63.50;;;;;;5003855;28;19925;-88
2023/03/18 01:11:32;;;;;;;;;;;15.60;63.60;;;;;;5002498;28;19952;-90
2023/03/18 01:13:58;;;;;;;;;;;15.50;63.70;;;;;;5002810;28;19925;-89
2023/03/18 01:16:26;;;;;;;;;;;15.50;63.80;;;;;;5000274;28;19939;-89
2023/03/18 01:18:52;;;;;;;;;;;15.50;63.80;;;;;;5001856;28;19949;-90
2023/03/18 01:21:18;;;;;;;;;;;15.50;63.90;;;;;;5004220;28;19968;-89
2023/03/18 01:23:43;;;;;;;;;;;15.50;64.00;;;;;;5000814;28;20373;-89
2023/03/18 01:26:09;;;;;;;;;;;15.50;64.10;;;;;;4998560;28;19917;-91
2023/03/18 01:28:35;;;;;;;;;;;15.50;64.10;;;;;;4999673;28;19945;-90
2023/03/18 01:31:01;;;;;;;;;;;15.50;64.20;;;;;;4999477;28;20001;-89
2023/03/18 01:33:27;;;;;;;;;;;15.50;64.20;;;;;;5001409;28;19918;-89
2023/03/18 01:35:58;;;;;;;;;;;15.50;64.30;;;;;;5002364;28;19921;-89
2023/03/18 01:38:24;;;;;;;;;;;15.50;64.40;;;;;;4999997;28;19922;-89
2023/03/18 01:40:53;;;;;;;;;;;15.60;64.40;;;;;;5002699;28;19988;-90
2023/03/18 01:43:20;;;;;;;;;;;15.50;64.40;;;;;;5004314;28;19935;-90
2023/03/18 01:45:50;;;;;;;;;;;15.50;64.50;;;;;;5000771;28;20020;-90
2023/03/18 01:48:17;;;;;;;;;;;15.50;64.60;;;;;;5004528;28;21214;-90
2023/03/18 01:50:44;;;;;;;;;;;15.50;64.50;;;;;;5001931;28;19972;-89
2023/03/18 01:53:14;;;;;;;;;;;15.60;64.70;;;;;;5002093;28;19918;-89
2023/03/18 01:55:40;;;;;;;;;;;15.50;64.80;;;;;;5003220;28;19910;-90
2023/03/18 01:58:12;;;;;;;;;;;15.50;64.60;;;;;;5000183;28;19940;-90
2023/03/18 02:00:40;;;;;;;;;;;15.60;64.70;;;;;;5002729;28;19932;-89
2023/03/18 02:03:06;;;;;;;;;;;15.60;64.70;;;;;;4999802;28;20293;-89
2023/03/18 02:05:32;;;;;;;;;;;15.70;64.60;;;;;;5001559;28;20292;-89
2023/03/18 02:07:57;;;;;;;;;;;15.70;64.60;;;;;;5018134;28;19926;-90
2023/03/18 02:10:26;;;;;;;;;;;15.70;64.60;;;;;;5002396;28;20737;-89
2023/03/18 02:12:57;;;;;;;;;;;15.80;64.50;;;;;;5000711;28;19923;-90
2023/03/18 02:15:23;;;;;;;;;;;15.80;64.50;;;;;;4998585;28;19992;-90
2023/03/18 02:17:56;;;;;;;;;;;15.80;64.60;;;;;;5000858;28;20596;-90
2023/03/18 02:20:34;;;;;;;;;;;15.90;64.40;;;;;;4994607;28;19917;-90
2023/03/18 02:23:08;;;;;;;;;;;15.90;64.30;;;;;;5002507;28;19926;-90
2023/03/18 02:25:50;;;;;;;;;;;15.90;64.30;;;;;;5000316;28;19914;-88
2023/03/18 02:28:19;;;;;;;;;;;15.90;64.20;;;;;;4999147;28;20029;-88
2023/03/18 02:30:50;;;;;;;;;;;16.00;64.10;;;;;;5000445;28;19957;-86
2023/03/18 02:33:17;;;;;;;;;;;16.00;64.10;;;;;;5000386;28;19926;-88
2023/03/18 02:35:47;;;;;;;;;;;16.00;64.10;;;;;;4996790;28;19921;-90
2023/03/18 02:38:12;;;;;;;;;;;16.00;64.00;;;;;;5000513;28;20348;-89
2023/03/18 02:40:39;;;;;;;;;;;16.00;63.90;;;;;;4999837;28;19976;-89
2023/03/18 02:43:15;;;;;;;;;;;16.10;63.90;;;;;;5000900;28;20321;-90
2023/03/18 02:45:53;;;;;;;;;;;16.10;64.00;;;;;;5000436;28;19955;-91
2023/03/18 02:48:20;;;;;;;;;;;16.00;63.80;;;;;;4999210;28;19926;-88
2023/03/18 02:50:48;;;;;;;;;;;16.10;63.90;;;;;;5000496;28;19918;-90
2023/03/18 02:53:14;;;;;;;;;;;16.10;64.20;;;;;;4999708;28;19925;-90
2023/03/18 02:55:41;;;;;;;;;;;16.10;64.30;;;;;;5001382;28;19948;-89
2023/03/18 02:58:07;;;;;;;;;;;16.10;64.00;;;;;;4997407;28;19929;-90
2023/03/18 03:00:33;;;;;;;;;;;16.10;64.10;;;;;;5001205;28;20292;-90
2023/03/18 03:02:58;;;;;;;;;;;16.10;63.90;;;;;;4998874;28;19969;-90
2023/03/18 03:05:24;;;;;;;;;;;16.10;64.00;;;;;;4998968;28;19917;-89
2023/03/18 03:07:50;;;;;;;;;;;16.10;64.00;;;;;;4998820;28;19968;-89
2023/03/18 03:10:16;;;;;;;;;;;16.10;64.10;;;;;;5001087;28;19926;-90
2023/03/18 03:12:41;;;;;;;;;;;16.10;64.10;;;;;;4998456;28;20008;-90
2023/03/18 03:15:07;;;;;;;;;;;16.10;64.20;;;;;;4997878;28;19921;-88
2023/03/18 03:17:34;;;;;;;;;;;16.10;63.90;;;;;;5000224;28;19944;-89
2023/03/18 03:20:00;;;;;;;;;;;16.10;64.00;;;;;;5000836;28;19917;-87
2023/03/18 03:22:26;;;;;;;;;;;16.10;63.90;;;;;;4999473;28;20004;-90
2023/03/18 03:24:53;;;;;;;;;;;16.00;63.80;;;;;;4999582;28;19918;-87
2023/03/18 03:27:18;;;;;;;;;;;16.00;63.80;;;;;;4999277;28;19973;-88
2023/03/18 03:29:44;;;;;;;;;;;16.00;63.80;;;;;;4995533;28;19995;-89
2023/03/18 03:32:10;;;;;;;;;;;16.00;63.80;;;;;;4999707;28;19914;-90
2023/03/18 03:34:36;;;;;;;;;;;15.90;63.70;;;;;;5001232;28;19945;-88
2023/03/18 03:37:02;;;;;;;;;;;15.90;63.80;;;;;;4999501;28;19949;-90
2023/03/18 03:39:27;;;;;;;;;;;15.80;64.00;;;;;;4999508;28;20375;-89
2023/03/18 03:41:53;;;;;;;;;;;15.90;63.90;;;;;;4999196;28;19941;-88
2023/03/18 03:44:21;;;;;;;;;;;15.90;64.00;;;;;;4998076;28;19937;-90
2023/03/18 03:46:47;;;;;;;;;;;15.90;64.10;;;;;;4997306;28;19910;-89
2023/03/18 03:49:13;;;;;;;;;;;15.90;64.20;;;;;;4998763;28;19964;-90
2023/03/18 03:51:38;;;;;;;;;;;15.90;64.10;;;;;;5001224;28;19910;-90
2023/03/18 03:54:04;;;;;;;;;;;15.90;64.00;;;;;;4998864;28;19940;-90
2023/03/18 03:56:30;;;;;;;;;;;15.90;63.90;;;;;;4999461;28;19914;-89
2023/03/18 03:58:56;;;;;;;;;;;15.80;63.80;;;;;;5001039;28;20292;-90
2023/03/18 04:01:22;;;;;;;;;;;15.80;63.70;;;;;;4997559;28;19911;-88
2023/03/18 04:03:50;;;;;;;;;;;15.80;63.60;;;;;;5001113;28;19925;-90
2023/03/18 04:06:16;;;;;;;;;;;15.70;63.50;;;;;;5000844;28;19914;-91
2023/03/18 04:08:41;;;;;;;;;;;15.70;63.40;;;;;;5002455;28;19940;-91
2023/03/18 04:11:07;;;;;;;;;;;15.70;63.50;;;;;;4999255;28;19913;-89
2023/03/18 04:13:33;;;;;;;;;;;15.60;63.60;;;;;;4998438;28;20233;-91
2023/03/18 04:15:59;;;;;;;;;;;15.60;64.00;;;;;;5000602;28;20049;-90
2023/03/18 04:18:26;;;;;;;;;;;15.60;63.90;;;;;;4998776;28;19918;-88
2023/03/18 04:20:52;;;;;;;;;;;15.70;63.80;;;;;;4998864;28;19937;-88
2023/03/18 04:23:18;;;;;;;;;;;15.60;63.70;;;;;;4998338;28;19922;-87
2023/03/18 04:25:43;;;;;;;;;;;15.60;63.50;;;;;;5000443;28;19920;-88
2023/03/18 04:28:09;;;;;;;;;;;15.50;63.30;;;;;;5012004;28;19918;-89
2023/03/18 04:30:34;;;;;;;;;;;15.50;63.30;;;;;;4999542;28;19920;-89
2023/03/18 04:33:02;;;;;;;;;;;15.40;63.30;;;;;;5001383;28;19929;-88
2023/03/18 04:35:28;;;;;;;;;;;15.40;63.40;;;;;;4995360;28;20281;-90
2023/03/18 04:37:53;;;;;;;;;;;15.30;63.30;;;;;;4998160;28;19924;-90
2023/03/18 04:40:19;;;;;;;;;;;15.30;63.20;;;;;;5001480;28;19917;-90
2023/03/18 04:42:46;;;;;;;;;;;15.30;63.20;;;;;;4998330;28;19961;-90
2023/03/18 04:45:14;;;;;;;;;;;15.30;63.60;;;;;;5001435;28;19972;-91
2023/03/18 04:47:40;;;;;;;;;;;15.40;63.90;;;;;;5000852;28;19917;-90
2023/03/18 04:50:07;;;;;;;;;;;15.50;64.20;;;;;;4996716;28;19921;-89
2023/03/18 04:52:33;;;;;;;;;;;15.60;64.20;;;;;;4999363;28;19914;-88
2023/03/18 04:54:59;;;;;;;;;;;15.70;64.20;;;;;;4999141;28;19956;-88
2023/03/18 04:57:25;;;;;;;;;;;15.80;64.20;;;;;;4995482;28;19953;-89
2023/03/18 04:59:50;;;;;;;;;;;15.80;64.10;;;;;;4999346;28;19914;-89
2023/03/18 05:02:16;;;;;;;;;;;15.90;64.10;;;;;;4998993;28;19992;-89
2023/03/18 05:04:42;;;;;;;;;;;16.00;64.10;;;;;;5000335;28;19922;-89
2023/03/18 05:07:09;;;;;;;;;;;16.10;64.10;;;;;;4997533;28;19910;-89
2023/03/18 05:09:35;;;;;;;;;;;16.10;64.00;;;;;;4997731;28;19916;-88
2023/03/18 05:12:00;;;;;;;;;;;16.20;63.90;;;;;;5000081;28;19997;-89
2023/03/18 05:14:27;;;;;;;;;;;16.20;64.00;;;;;;4996661;28;20242;-88
2023/03/18 05:16:53;;;;;;;;;;;16.20;64.00;;;;;;4998595;28;20001;-88
2023/03/18 05:19:19;;;;;;;;;;;16.20;63.80;;;;;;4999181;28;20025;-88
2023/03/18 05:21:45;;;;;;;;;;;16.30;63.70;;;;;;4996945;28;19913;-89
2023/03/18 05:24:21;;;;;;;;;;;16.20;63.70;;;;;;4997957;28;19926;-89
2023/03/18 05:26:48;;;;;;;;;;;16.30;63.70;;;;;;4997689;28;19913;-90
2023/03/18 05:29:15;;;;;;;;;;;16.30;63.80;;;;;;4997968;28;20368;-88
2023/03/18 05:31:42;;;;;;;;;;;16.30;63.80;;;;;;5000004;28;19960;-89
2023/03/18 05:34:08;;;;;;;;;;;16.40;63.80;;;;;;5010705;28;19922;-90
2023/03/18 05:36:33;;;;;;;;;;;16.40;63.80;;;;;;4998792;28;19915;-88
2023/03/18 05:38:59;;;;;;;;;;;16.50;63.80;;;;;;5001076;28;19918;-89
2023/03/18 05:41:25;;;;;;;;;;;16.40;63.70;;;;;;5001912;28;19914;-90
2023/03/18 05:43:51;;;;;;;;;;;16.50;63.60;;;;;;5001738;28;20438;-90
2023/03/18 05:46:17;;;;;;;;;;;16.50;63.70;;;;;;5003134;28;19910;-89
2023/03/18 05:48:42;;;;;;;;;;;16.50;63.70;;;;;;5000026;28;19928;-88
2023/03/18 05:51:08;;;;;;;;;;;16.50;63.60;;;;;;5002550;28;19909;-90
2023/03/18 05:53:37;;;;;;;;;;;16.50;63.70;;;;;;5002472;28;20332;-89
2023/03/18 05:56:03;;;;;;;;;;;16.50;63.70;;;;;;5002174;28;19918;-90
2023/03/18 05:58:30;;;;;;;;;;;16.60;63.70;;;;;;4998796;28;19922;-90
2023/03/18 06:00:56;;;;;;;;;;;16.60;63.80;;;;;;5019447;28;19917;-89
2023/03/18 06:03:23;;;;;;;;;;;16.60;63.80;;;;;;5001813;28;19933;-89
2023/03/18 06:05:49;;;;;;;;;;;16.70;63.90;;;;;;4998103;28;19914;-90
2023/03/18 06:08:20;;;;;;;;;;;16.70;63.80;;;;;;5000515;28;20424;-90
2023/03/18 06:10:46;;;;;;;;;;;16.70;63.90;;;;;;5003495;28;19933;-90
2023/03/18 06:13:11;;;;;;;;;;;16.80;63.90;;;;;;5001257;28;19918;-90
2023/03/18 06:15:37;;;;;;;;;;;16.80;64.00;;;;;;5001609;28;19956;-90
2023/03/18 06:18:03;;;;;;;;;;;16.80;63.90;;;;;;4999278;28;19965;-90
2023/03/18 06:20:29;;;;;;;;;;;16.90;63.90;;;;;;4999368;28;20025;-90
2023/03/18 06:22:55;;;;;;;;;;;16.90;64.10;;;;;;5003461;28;20036;-90
2023/03/18 06:25:21;;;;;;;;;;;17.00;64.20;;;;;;4999258;28;19917;-90
2023/03/18 06:27:47;;;;;;;;;;;17.00;64.20;;;;;;5002756;28;20419;-89
2023/03/18 06:30:13;;;;;;;;;;;17.10;64.80;;;;;;5001208;28;20289;-89
2023/03/18 06:32:39;;;;;;;;;;;17.30;65.40;;;;;;5001940;28;19952;-89
2023/03/18 06:35:05;;;;;;;;;;;17.70;66.00;;;;;;4996066;28;19952;-91
2023/03/18 06:37:31;;;;;;;;;;;17.90;65.70;;;;;;5000335;28;19925;-89
2023/03/18 06:39:57;;;;;;;;;;;18.10;65.30;;;;;;5001932;28;19913;-90
2023/03/18 06:42:24;;;;;;;;;;;18.20;64.70;;;;;;4997066;28;19922;-90
2023/03/18 06:44:50;;;;;;;;;;;18.20;64.40;;;;;;4996996;28;19932;-89
2023/03/18 06:47:17;;;;;;;;;;;18.30;64.30;;;;;;4998755;28;19922;-91
2023/03/18 06:49:42;;;;;;;;;;;18.30;63.90;;;;;;5004137;28;19960;-90
2023/03/18 06:52:08;;;;;;;;;;;18.30;63.90;;;;;;5014722;28;19972;-91
2023/03/18 06:54:34;;;;;;;;;;;18.30;63.70;;;;;;4996280;28;20510;-90
2023/03/18 06:57:00;;;;;;;;;;;18.30;63.70;;;;;;4998924;28;20309;-91
2023/03/18 06:59:26;;;;;;;;;;;18.30;63.70;;;;;;5017008;28;19980;-90
2023/03/18 07:01:51;;;;;;;;;;;18.30;63.60;;;;;;5001233;28;19910;-91
2023/03/18 07:04:17;;;;;;;;;;;18.30;63.60;;;;;;4995446;28;20080;-91
2023/03/18 07:06:43;;;;;;;;;;;18.20;63.60;;;;;;4999083;28;20349;-91
2023/03/18 07:09:11;;;;;;;;;;;18.30;63.60;;;;;;4996882;28;20008;-89
2023/03/18 07:11:37;;;;;;;;;;;18.20;63.60;;;;;;5000317;28;20013;-89
2023/03/18 07:14:02;;;;;;;;;;;18.30;63.50;;;;;;4997989;28;20555;-88
2023/03/18 07:16:29;;;;;;;;;;;18.30;64.10;;;;;;4998371;28;19909;-90
2023/03/18 07:18:57;;;;;;;;;;;18.60;65.30;;;;;;4999188;28;19921;-91
2023/03/18 07:21:23;;;;;;;;;;;18.90;65.20;;;;;;5001466;28;19910;-89
2023/03/18 07:23:49;;;;;;;;;;;19.10;64.50;;;;;;4999649;28;19930;-91
2023/03/18 07:26:14;;;;;;;;;;;19.30;64.50;;;;;;4996711;28;20368;-90
2023/03/18 07:28:40;;;;;;;;;;;19.40;64.30;;;;;;5001848;28;19920;-89
2023/03/18 07:31:06;;;;;;;;;;;19.50;63.70;;;;;;5001547;28;19971;-89
2023/03/18 07:33:33;;;;;;;;;;;19.40;63.10;;;;;;4996872;28;19922;-91
2023/03/18 07:35:59;;;;;;;;;;;19.40;62.80;;;;;;4998757;28;19913;-90
2023/03/18 07:38:25;;;;;;;;;;;19.50;63.10;;;;;;5006172;28;19926;-90
2023/03/18 07:40:51;;;;;;;;;;;19.50;63.00;;;;;;4990987;28;19960;-90
2023/03/18 07:43:17;;;;;;;;;;;19.50;62.50;;;;;;5003588;28;20016;-90
2023/03/18 07:45:43;;;;;;;;;;;19.50;62.70;;;;;;5002284;28;20012;-90
2023/03/18 07:48:08;;;;;;;;;;;19.50;62.60;;;;;;5002794;28;20343;-92
2023/03/18 07:50:36;;;;;;;;;;;19.50;62.40;;;;;;5003865;28;19910;-89
2023/03/18 07:53:03;;;;;;;;;;;19.40;62.20;;;;;;5000293;28;19977;-91
2023/03/18 07:55:28;;;;;;;;;;;19.40;61.40;;;;;;4998772;28;19916;-90
2023/03/18 07:57:55;;;;;;;;;;;19.30;61.60;;;;;;5000576;28;19921;-91
2023/03/18 08:00:24;;;;;;;;;;;19.30;61.60;;;;;;4998992;28;20372;-91
2023/03/18 08:02:50;;;;;;;;;;;19.30;61.60;;;;;;4996832;28;19924;-91
2023/03/18 08:05:17;;;;;;;;;;;19.20;61.60;;;;;;4998715;28;19917;-92
2023/03/18 08:07:43;;;;;;;;;;;19.20;61.60;;;;;;5000459;28;19925;-89
2023/03/18 08:10:10;;;;;;;;;;;19.20;61.60;;;;;;4998871;28;19993;-92
2023/03/18 08:12:36;;;;;;;;;;;19.30;61.70;;;;;;4990209;28;20004;-91
2023/03/18 08:15:01;;;;;;;;;;;19.40;61.90;;;;;;4993072;28;19926;-91
2023/03/18 08:17:27;;;;;;;;;;;19.50;62.20;;;;;;4993930;28;19918;-90
2023/03/18 08:19:56;;;;;;;;;;;19.60;62.00;;;;;;4996671;28;19921;-90
2023/03/18 08:22:24;;;;;;;;;;;19.70;61.80;;;;;;4997591;28;19922;-94
2023/03/18 08:24:50;;;;;;;;;;;19.90;62.80;;;;;;4994301;28;20392;-90
2023/03/18 08:27:16;;;;;;;;;;;20.40;64.00;;;;;;4997611;28;19928;-90
2023/03/18 08:29:42;;;;;;;;;;;20.80;63.50;;;;;;4996451;28;20288;-90
2023/03/18 08:32:08;;;;;;;;;;;21.30;62.60;;;;;;4997898;28;20055;-90
2023/03/18 08:34:34;;;;;;;;;;;21.40;61.30;;;;;;4997251;28;19920;-90
2023/03/18 08:37:00;;;;;;;;;;;21.50;60.20;;;;;;4998882;28;19916;-90
2023/03/18 08:39:27;;;;;;;;;;;21.50;60.10;;;;;;5000465;28;19957;-91
2023/03/18 08:41:53;;;;;;;;;;;21.50;59.50;;;;;;4997379;28;20421;-92
2023/03/18 08:44:19;;;;;;;;;;;21.50;59.70;;;;;;4998040;28;20016;-92
2023/03/18 08:46:45;;;;;;;;;;;21.40;58.30;;;;;;4998825;28;19913;-91
2023/03/18 08:49:12;;;;;;;;;;;21.30;57.70;;;;;;5000644;28;19913;-92
2023/03/18 08:51:38;;;;;;;;;;;21.30;57.50;;;;;;4999341;28;19914;-91
2023/03/18 08:54:04;;;;;;;;;;;21.30;57.10;;;;;;5000689;28;20762;-92
2023/03/18 08:56:30;;;;;;;;;;;21.30;57.10;;;;;;5013510;28;19917;-93
2023/03/18 08:58:56;;;;;;;;;;;21.10;56.10;;;;;;4999164;28;20738;-91
2023/03/18 09:01:22;;;;;;;;;;;21.10;56.00;;;;;;4998528;28;19917;-91
2023/03/18 09:03:49;;;;;;;;;;;21.20;57.00;;;;;;4998394;28;19964;-91
2023/03/18 09:06:15;;;;;;;;;;;21.40;57.40;;;;;;4998373;28;19909;-91
2023/03/18 09:08:41;;;;;;;;;;;21.70;58.40;;;;;;4998590;28;19918;-91
2023/03/18 09:11:09;;;;;;;;;;;22.10;58.30;;;;;;5000329;28;19984;-91
2023/03/18 09:13:35;;;;;;;;;;;22.40;57.60;;;;;;4999358;28;19929;-91
2023/03/18 09:16:01;;;;;;;;;;;22.80;58.20;;;;;;5000473;28;20017;-89
2023/03/18 09:18:28;;;;;;;;;;;23.20;57.30;;;;;;5001856;28;20012;-90
2023/03/18 09:21:01;;;;;;;;;;;23.30;56.00;;;;;;4999200;28;20424;-91
2023/03/18 09:23:27;;;;;;;;;;;23.60;55.70;;;;;;4998689;28;19965;-91
2023/03/18 09:25:53;;;;;;;;;;;23.70;54.30;;;;;;4999500;28;19914;-89
2023/03/18 09:28:19;;;;;;;;;;;23.80;53.40;;;;;;5016426;28;19925;-90
2023/03/18 09:30:45;;;;;;;;;;;24.10;54.70;;;;;;5002365;28;19909;-90
2023/03/18 09:38:54;;;;;;;;;;;24.70;52.70;;;;;;5009394;28;19924;-89
2023/03/18 09:41:40;;;;;;;;;;;24.70;51.80;;;;;;5001660;28;19910;-94
2023/03/18 09:44:45;;;;;;;;;;;24.60;49.10;;;;;;5023897;28;19930;-90
2023/03/18 09:56:37;;;;;;;;;;;;;;;;;;;;;
2023/03/18 10:00:07;;;;;;;;;;;26.60;51.20;;;;;;4918127;29;19929;-92
2023/03/18 10:03:00;;;;;;;;;;;27.30;49.50;;;;;;4948961;29;19966;-91
2023/03/18 10:05:53;;;;;;;;;;;28.30;47.70;;;;;;4953525;29;19976;-92
2023/03/18 10:08:47;;;;;;;;;;;29.20;46.80;;;;;;5020186;28;20045;-90
2023/03/18 10:11:43;;;;;;;;;;;29.90;44.40;;;;;;4996844;28;19917;-89
2023/03/18 10:14:40;;;;;;;;;;;30.30;42.20;;;;;;5004745;28;19922;-91
2023/03/18 10:24:25;;;;;;;;;;;30.30;41.40;;;;;;4962209;28;19927;-89
2023/03/18 10:27:36;;;;;;;;;;;;;;;;;;;;;
2023/03/18 10:30:29;;;;;;;;;;;;;;;;;;;;;
2023/03/18 10:33:18;;;;;;;;;;;30.20;38.50;;;;;;4987619;28;19945;-89
2023/03/18 10:36:02;;;;;;;;;;;30.00;38.00;;;;;;5021356;28;19976;-91
2023/03/18 10:38:35;;;;;;;;;;;29.70;36.80;;;;;;5004435;28;19918;-91
2023/03/18 10:41:00;;;;;;;;;;;29.30;37.60;;;;;;5020110;28;19964;-90
2023/03/18 10:43:29;;;;;;;;;;;29.10;38.40;;;;;;5013376;28;19921;-90
2023/03/18 10:46:04;;;;;;;;;;;28.80;38.00;;;;;;5002477;28;19922;-89
2023/03/18 10:48:36;;;;;;;;;;;28.60;37.30;;;;;;5008113;28;19917;-92
2023/03/18 10:51:08;;;;;;;;;;;28.30;36.90;;;;;;5019345;28;19969;-89
2023/03/18 10:53:41;;;;;;;;;;;28.00;37.60;;;;;;5020325;28;19918;-90
2023/03/18 10:56:11;;;;;;;;;;;28.10;38.40;;;;;;4999176;28;20528;-88
2023/03/18 10:58:38;;;;;;;;;;;28.40;37.90;;;;;;4999554;28;20319;-91
2023/03/18 11:01:06;;;;;;;;;;;28.70;37.40;;;;;;4999901;28;19918;-89
2023/03/18 11:03:34;;;;;;;;;;;29.10;37.20;;;;;;5004698;28;19976;-88
2023/03/18 11:06:01;;;;;;;;;;;29.50;37.00;;;;;;5005099;28;20423;-89
2023/03/18 11:08:39;;;;;;;;;;;29.80;36.10;;;;;;4996969;28;19944;-91
2023/03/18 11:11:14;;;;;;;;;;;30.00;36.40;;;;;;5015996;28;19918;-91
2023/03/18 11:13:54;;;;;;;;;;;30.20;36.20;;;;;;5013308;28;19914;-91
2023/03/18 11:16:32;;;;;;;;;;;30.70;35.30;;;;;;5004416;28;19917;-90
2023/03/18 11:18:58;;;;;;;;;;;31.20;35.40;;;;;;5006405;28;19917;-88
2023/03/18 11:21:24;;;;;;;;;;;31.40;34.40;;;;;;5000567;28;19950;-91
2023/03/18 11:24:33;;;;;;;;;;;31.50;33.80;;;;;;5015459;28;19972;-92
2023/03/18 11:27:02;;;;;;;;;;;31.30;33.50;;;;;;5005864;28;19940;-90
2023/03/18 11:29:33;;;;;;;;;;;31.40;33.40;;;;;;5000785;28;19925;-91
2023/03/18 11:32:00;;;;;;;;;;;31.60;33.60;;;;;;5002079;28;19918;-90
2023/03/18 11:34:27;;;;;;;;;;;31.80;32.80;;;;;;5005568;28;19949;-88
2023/03/18 11:36:59;;;;;;;;;;;31.90;32.10;;;;;;5003606;28;20009;-88
2023/03/18 11:39:27;;;;;;;;;;;32.20;32.40;;;;;;5006396;28;19918;-92
2023/03/18 11:41:53;;;;;;;;;;;32.50;31.20;;;;;;4999612;28;19981;-93
2023/03/18 11:44:23;;;;;;;;;;;32.80;30.70;;;;;;5005542;28;19929;-90
2023/03/18 11:46:52;;;;;;;;;;;33.00;30.10;;;;;;5004003;28;19918;-92
2023/03/18 11:49:22;;;;;;;;;;;32.80;28.40;;;;;;5003242;28;19925;-90
2023/03/18 11:51:54;;;;;;;;;;;32.40;29.00;;;;;;4996208;28;20372;-90
2023/03/18 11:54:41;;;;;;;;;;;32.50;29.30;;;;;;5002578;28;19972;-89
2023/03/18 11:57:07;;;;;;;;;;;32.60;29.60;;;;;;5005677;28;20323;-90
2023/03/18 11:59:51;;;;;;;;;;;32.40;27.80;;;;;;5003263;28;19926;-91
2023/03/18 12:02:29;;;;;;;;;;;32.10;28.80;;;;;;5016369;28;19913;-91
2023/03/18 12:04:55;;;;;;;;;;;31.80;29.10;;;;;;5007976;28;19929;-91
2023/03/18 12:07:32;;;;;;;;;;;31.80;29.70;;;;;;5024783;28;19914;-91
2023/03/18 12:10:11;;;;;;;;;;;31.80;29.70;;;;;;5015402;28;20316;-91
2023/03/18 12:12:45;;;;;;;;;;;32.00;29.60;;;;;;4999684;28;19964;-91
2023/03/18 12:15:17;;;;;;;;;;;32.30;29.40;;;;;;5002754;28;19925;-89
2023/03/18 12:17:58;;;;;;;;;;;32.40;29.30;;;;;;5006215;28;20621;-90
2023/03/18 12:20:32;;;;;;;;;;;32.40;28.70;;;;;;5001011;28;19921;-93
2023/03/18 12:22:58;;;;;;;;;;;32.10;28.50;;;;;;5003402;28;19921;-91
2023/03/18 12:25:49;;;;;;;;;;;31.80;28.20;;;;;;4998887;28;20223;-91
2023/03/18 12:28:15;;;;;;;;;;;31.50;28.50;;;;;;4999116;28;19913;-93
2023/03/18 12:31:00;;;;;;;;;;;31.50;28.30;;;;;;5002017;28;19952;-91
2023/03/18 12:33:44;;;;;;;;;;;31.70;29.00;;;;;;5004500;28;20085;-92
2023/03/18 12:36:16;;;;;;;;;;;31.90;29.40;;;;;;4994836;28;19918;-89
2023/03/18 12:39:01;;;;;;;;;;;32.00;29.00;;;;;;4996532;28;20447;-91
2023/03/18 12:41:28;;;;;;;;;;;31.90;28.70;;;;;;5008913;28;19922;-89
2023/03/18 12:44:12;;;;;;;;;;;31.90;28.50;;;;;;4998951;28;19922;-91
2023/03/18 12:46:41;;;;;;;;;;;31.80;27.90;;;;;;5000980;28;19953;-89
2023/03/18 12:49:19;;;;;;;;;;;31.70;28.50;;;;;;5002566;28;20429;-88
2023/03/18 12:51:49;;;;;;;;;;;31.50;28.80;;;;;;5020636;28;19914;-91
2023/03/18 12:54:20;;;;;;;;;;;31.30;28.70;;;;;;5003842;28;20038;-89
2023/03/18 12:56:49;;;;;;;;;;;31.30;28.60;;;;;;5011493;28;20583;-91
2023/03/18 12:59:26;;;;;;;;;;;31.40;27.90;;;;;;5008526;28;19921;-91
2023/03/18 13:01:57;;;;;;;;;;;31.50;28.30;;;;;;5007039;28;20368;-91
2023/03/18 13:04:29;;;;;;;;;;;31.80;28.60;;;;;;5007105;28;19929;-92
2023/03/18 13:07:16;;;;;;;;;;;32.20;28.80;;;;;;5006009;28;19920;-89
2023/03/18 13:09:44;;;;;;;;;;;32.30;28.60;;;;;;5007253;28;19941;-89
2023/03/18 13:12:16;;;;;;;;;;;32.30;28.20;;;;;;4999959;28;19914;-91
2023/03/18 13:14:58;;;;;;;;;;;32.20;27.90;;;;;;5003783;28;20384;-89
2023/03/18 13:17:31;;;;;;;;;;;31.70;28.00;;;;;;4996008;28;19918;-90
2023/03/18 13:19:58;;;;;;;;;;;31.50;28.30;;;;;;5005258;28;19924;-88
2023/03/18 13:22:31;;;;;;;;;;;31.50;28.70;;;;;;5008770;28;20437;-91
2023/03/18 13:25:00;;;;;;;;;;;31.50;28.60;;;;;;5007720;28;19936;-90
2023/03/18 13:27:31;;;;;;;;;;;31.70;28.40;;;;;;5008629;28;19920;-90
2023/03/18 13:30:04;;;;;;;;;;;31.40;27.50;;;;;;5003513;28;19930;-91
2023/03/18 13:32:30;;;;;;;;;;;30.90;26.80;;;;;;5003792;28;20015;-91
2023/03/18 13:34:56;;;;;;;;;;;30.30;27.60;;;;;;5023148;28;19930;-88
2023/03/18 13:37:21;;;;;;;;;;;29.80;27.70;;;;;;5015757;28;20369;-89
2023/03/18 13:39:47;;;;;;;;;;;29.30;28.50;;;;;;5011260;28;19921;-94
2023/03/18 13:42:29;;;;;;;;;;;28.80;29.20;;;;;;5024803;28;19910;-93
2023/03/18 13:44:55;;;;;;;;;;;28.50;29.70;;;;;;5001695;28;20337;-89
2023/03/18 13:47:21;;;;;;;;;;;28.30;30.60;;;;;;5001580;28;19917;-93
2023/03/18 13:49:47;;;;;;;;;;;28.20;30.50;;;;;;5002337;28;19918;-91
2023/03/18 13:52:36;;;;;;;;;;;28.00;31.10;;;;;;5001792;28;20309;-91
2023/03/18 13:55:04;;;;;;;;;;;27.90;30.90;;;;;;5004388;28;19928;-92
2023/03/18 13:57:43;;;;;;;;;;;27.70;31.30;;;;;;5000815;28;19941;-89
2023/03/18 14:00:22;;;;;;;;;;;27.60;31.40;;;;;;5002071;28;20369;-93
2023/03/18 14:03:00;;;;;;;;;;;27.50;31.30;;;;;;4997930;28;19913;-90
2023/03/18 14:05:32;;;;;;;;;;;27.30;31.10;;;;;;4994394;28;19925;-89
2023/03/18 14:07:57;;;;;;;;;;;27.20;31.50;;;;;;5015580;28;19936;-91
2023/03/18 14:10:23;;;;;;;;;;;27.10;31.40;;;;;;5004472;28;19917;-93
2023/03/18 14:12:49;;;;;;;;;;;26.90;31.30;;;;;;5018180;28;19918;-89
2023/03/18 14:15:15;;;;;;;;;;;26.80;31.40;;;;;;5006984;28;19941;-93
2023/03/18 14:17:55;;;;;;;;;;;26.70;31.80;;;;;;5015866;28;20060;-90
2023/03/18 14:20:23;;;;;;;;;;;26.40;31.70;;;;;;4999479;28;19918;-90
2023/03/18 14:22:50;;;;;;;;;;;26.30;32.10;;;;;;4999738;28;19918;-93
2023/03/18 14:25:33;;;;;;;;;;;26.30;32.60;;;;;;5001966;28;20296;-89
2023/03/18 14:28:12;;;;;;;;;;;26.30;32.70;;;;;;5012145;28;19928;-90
2023/03/18 14:30:37;;;;;;;;;;;26.30;32.80;;;;;;5002426;28;19925;-91
2023/03/18 14:33:21;;;;;;;;;;;26.30;32.70;;;;;;5016899;28;19917;-91
2023/03/18 14:35:56;;;;;;;;;;;26.10;32.50;;;;;;4998655;28;19945;-89
2023/03/18 14:38:23;;;;;;;;;;;26.00;32.90;;;;;;4996984;28;21200;-92
2023/03/18 14:40:50;;;;;;;;;;;25.90;33.00;;;;;;4998682;28;20036;-91
2023/03/18 14:43:39;;;;;;;;;;;25.90;33.00;;;;;;4999296;28;19918;-91
2023/03/18 14:46:16;;;;;;;;;;;25.80;33.10;;;;;;4987502;28;19918;-91
2023/03/18 14:48:43;;;;;;;;;;;25.70;32.90;;;;;;5003354;28;19918;-91
2023/03/18 14:51:12;;;;;;;;;;;25.60;32.90;;;;;;5013879;28;20544;-90
2023/03/18 14:53:41;;;;;;;;;;;25.50;32.90;;;;;;5003208;28;20383;-92
2023/03/18 14:56:21;;;;;;;;;;;25.40;33.00;;;;;;4999637;28;19917;-92